TimeIST,TemperatureF,Dew PointF,Humidity,Sea Level PressureIn,VisibilityMPH,Wind Direction,Wind SpeedMPH,Gust SpeedMPH,PrecipitationIn,Events,Conditions,WindDirDegrees,DateUTC
12:20 AM,62.6,51.8,68,29.95,-9999.0,Variable,1.2,-,N/A,,Clear,0,2013-11-10 22:20:00
12:50 AM,62.6,51.8,68,29.95,-9999.0,Variable,3.5,-,N/A,,Clear,0,2013-11-10 22:50:00
1:20 AM,62.6,51.8,68,29.95,-9999.0,Variable,2.3,-,N/A,,Clear,0,2013-11-10 23:20:00
1:50 AM,62.6,51.8,68,29.92,-9999.0,Variable,3.5,-,N/A,,Clear,0,2013-11-10 23:50:00
2:00 AM,63,51,56,29.94,6,,3.5,,,,,,2013-11-11 00:00:00
2:20 AM,62.6,50.0,63,29.92,-9999.0,Variable,2.3,-,N/A,,Clear,0,2013-11-11 00:20:00
2:50 AM,60.8,50.0,68,29.95,-9999.0,Variable,1.2,-,N/A,,Clear,0,2013-11-11 00:50:00
3:20 AM,62.6,51.8,68,29.92,-9999.0,Variable,3.5,-,N/A,,Clear,0,2013-11-11 01:20:00
3:50 AM,62.6,50.0,63,29.92,-9999.0,Variable,2.3,-,N/A,,Clear,0,2013-11-11 01:50:00
4:20 AM,59.0,48.2,67,29.95,-9999.0,Calm,Calm,-,N/A,,Clear,0,2013-11-11 02:20:00
4:50 AM,60.8,48.2,63,29.95,-9999.0,Variable,3.5,-,N/A,,Clear,0,2013-11-11 02:50:00
5:20 AM,59.0,48.2,67,29.95,-9999.0,Variable,2.3,-,N/A,,Clear,0,2013-11-11 03:20:00
5:50 AM,59.0,48.2,67,29.95,-9999.0,Calm,Calm,-,N/A,,Clear,0,2013-11-11 03:50:00
6:20 AM,60.8,50.0,68,29.95,-9999.0,Variable,2.3,-,N/A,,Clear,0,2013-11-11 04:20:00
6:50 AM,60.8,48.2,63,29.98,-9999.0,Variable,2.3,-,N/A,,Clear,0,2013-11-11 04:50:00
7:20 AM,64.4,48.2,56,29.98,-9999.0,Calm,Calm,-,N/A,,Clear,0,2013-11-11 05:20:00
7:50 AM,68.0,48.2,49,29.98,-9999.0,Calm,Calm,-,N/A,,Clear,0,2013-11-11 05:50:00
8:00 AM,68,49,39,30.00,6,Calm,Calm,,,,,,2013-11-11 06:00:00
8:20 AM,73.4,48.2,41,29.98,-9999.0,Calm,Calm,-,N/A,,Clear,0,2013-11-11 06:20:00
8:50 AM,77.0,50.0,39,29.98,-9999.0,Variable,1.2,-,N/A,,Clear,0,2013-11-11 06:50:00
9:20 AM,80.6,50.0,34,29.98,-9999.0,Variable,1.2,-,N/A,,Clear,0,2013-11-11 07:20:00
9:50 AM,80.6,51.8,37,29.98,-9999.0,ESE,16.1,-,N/A,,Clear,120,2013-11-11 07:50:00
10:20 AM,82.4,51.8,35,29.98,-9999.0,ESE,15.0,-,N/A,,Clear,110,2013-11-11 08:20:00
10:50 AM,82.4,50.0,32,29.98,-9999.0,East,13.8,-,N/A,,Clear,100,2013-11-11 08:50:00
11:20 AM,82.4,50.0,32,29.95,6.2,ESE,15.0,-,N/A,,Partly Cloudy,110,2013-11-11 09:20:00
11:50 AM,82.4,48.2,30,29.95,6.2,East,12.7,-,N/A,,Partly Cloudy,100,2013-11-11 09:50:00
12:20 PM,84.2,48.2,29,29.95,6.2,ESE,12.7,-,N/A,,Partly Cloudy,110,2013-11-11 10:20:00
12:50 PM,84.2,46.4,27,29.92,6.2,East,10.4,-,N/A,,Partly Cloudy,100,2013-11-11 10:50:00
1:20 PM,84.2,48.2,29,29.92,6.2,East,11.5,-,N/A,,Partly Cloudy,100,2013-11-11 11:20:00
1:50 PM,84.2,48.2,29,29.92,6.2,ESE,13.8,-,N/A,,Partly Cloudy,120,2013-11-11 11:50:00
2:00 PM,85,47,17,29.94,6,ESE,13.8,,,,Scattered Clouds,120,2013-11-11 12:00:00
2:20 PM,84.2,46.4,27,29.92,6.2,ESE,11.5,-,N/A,,Partly Cloudy,110,2013-11-11 12:20:00
2:50 PM,84.2,50.0,30,29.92,6.2,ESE,13.8,-,N/A,,Partly Cloudy,110,2013-11-11 12:50:00
3:20 PM,82.4,50.0,32,29.95,6.2,ESE,15.0,-,N/A,,Partly Cloudy,110,2013-11-11 13:20:00
3:50 PM,82.4,50.0,32,29.95,6.2,ESE,13.8,-,N/A,,Partly Cloudy,120,2013-11-11 13:50:00
4:20 PM,82.4,50.0,32,29.95,6.2,East,13.8,-,N/A,,Partly Cloudy,100,2013-11-11 14:20:00
4:50 PM,80.6,50.0,34,29.95,-9999.0,East,9.2,-,N/A,,Clear,90,2013-11-11 14:50:00
5:20 PM,78.8,50.0,36,29.95,-9999.0,East,8.1,-,N/A,,Clear,90,2013-11-11 15:20:00
5:50 PM,78.8,50.0,36,29.95,-9999.0,ENE,8.1,-,N/A,,Clear,60,2013-11-11 15:50:00
6:20 PM,77.0,50.0,39,29.95,-9999.0,ENE,6.9,-,N/A,,Clear,60,2013-11-11 16:20:00
6:50 PM,77.0,50.0,39,29.95,-9999.0,East,8.1,-,N/A,,Clear,80,2013-11-11 16:50:00
7:20 PM,75.2,50.0,41,29.98,-9999.0,NNE,4.6,-,N/A,,Clear,20,2013-11-11 17:20:00
7:50 PM,75.2,50.0,41,29.98,-9999.0,Variable,3.5,-,N/A,,Clear,0,2013-11-11 17:50:00
8:00 PM,76,51,30,29.98,6,,3.5,,,,,,2013-11-11 18:00:00
8:20 PM,75.2,51.8,44,29.98,-9999.0,NE,6.9,-,N/A,,Clear,40,2013-11-11 18:20:00
8:50 PM,73.4,51.8,47,29.98,-9999.0,NE,5.8,-,N/A,,Clear,40,2013-11-11 18:50:00
9:20 PM,73.4,51.8,47,29.98,-9999.0,NNE,8.1,-,N/A,,Clear,20,2013-11-11 19:20:00
9:50 PM,73.4,51.8,47,29.98,-9999.0,NE,5.8,-,N/A,,Clear,40,2013-11-11 19:50:00
10:20 PM,73.4,51.8,47,29.98,-9999.0,NE,4.6,-,N/A,,Clear,50,2013-11-11 20:20:00
10:50 PM,73.4,51.8,47,29.98,-9999.0,NE,9.2,-,N/A,,Clear,40,2013-11-11 20:50:00
11:20 PM,71.6,51.8,50,29.98,-9999.0,NNE,9.2,-,N/A,,Clear,30,2013-11-11 21:20:00
11:50 PM,71.6,51.8,50,29.98,-9999.0,NNE,8.1,-,N/A,,Clear,20,2013-11-11 21:50:00